Startpagina
METAR-TAF:

METAR-TAF

Vliegvelden :

Vliegbasis Bevekom

Bevekom, België

breedte: 50-45N, lengte: 004-46E, hoogte: 105 m

Actueel weer

Dit bericht is 22 minuten geleden gemaakt, om 02:21 UTC
Wind 3 kt uit het zuidzuidwesten
Temperatuur 2°C
Vochtigheid 100%
Druk 1024 hPa
Zicht: 2500 m
nevel

METAR: EBBE 240221Z AUTO 20003KT 2500 BR BKN002/// 02/02 Q1024 AMB

Tijdstip: 03:43 (02:43 UTC)

Verwachting

Dit bericht is 11 uur en het 2 minuten geleden gemaakt, om 15:41 UTC
Verwachting geldig van 23 om 19 UTC tot 24 om 07 UTC
Wind 8 kt uit het oosten
Zicht: 3000 m
Gebroken wolken op 300 ft
Geheel bewolkt op 500 ft
nevel
Tijdelijke
van 24 om 05 UTC tot 24 om 07 UTC
Wind 1 kt uit variabele richting
Zicht: 0500 m
Gebroken wolken op 200 ft
Geheel bewolkt op 300 ft
mist

TAF: EBBE 231541Z 2319/2407 08008KT 3000 BR BKN003 OVC005 TEMPO 2405/2407 VRB01KT 0500 FG BKN002 OVC003

Waarnemingen en weersverwachtingen van meer dan 4000 vliegvelden (METAR en TAF).

De beschikbare stations zijn de gele en rode punten op de kaart.

Ga met uw muis naar het station om de naam te zien.

Klik dan om waarnemingen en weersverwachtingen te zien.

kaart wijzigen: klik op de groene knoppen met een zwart kruis om in te zoomen, op de groene knop met een streepje om uit te zoomen of op de groene pijlen voor aangrenzende kaarten.


METAR-TAF: